createdAt,value
2022-08-24T00:00:24.123Z,17.26
2022-08-24T00:01:24.044Z,17.22
2022-08-24T00:02:24.140Z,17.18
2022-08-24T00:03:24.159Z,17.15
2022-08-24T00:04:24.988Z,17.14
2022-08-24T00:05:24.083Z,17.13
2022-08-24T00:06:23.988Z,17.13
2022-08-24T00:07:27.808Z,17.11
2022-08-24T00:08:23.984Z,17.08
2022-08-24T00:09:24.025Z,17.07
2022-08-24T00:10:23.967Z,17.06
2022-08-24T00:11:23.969Z,17.04
2022-08-24T00:12:23.886Z,17.04
2022-08-24T00:13:23.979Z,17.00
2022-08-24T00:14:24.062Z,16.98
2022-08-24T00:15:24.644Z,16.96
2022-08-24T00:16:23.934Z,16.95
2022-08-24T00:17:23.821Z,16.92
2022-08-24T00:18:24.850Z,16.92
2022-08-24T00:19:23.872Z,16.89
2022-08-24T00:20:23.828Z,16.88
2022-08-24T00:21:24.268Z,16.89
2022-08-24T00:22:23.761Z,16.88
2022-08-24T00:23:23.752Z,16.85
2022-08-24T00:24:23.761Z,16.85
2022-08-24T00:25:23.751Z,16.80
2022-08-24T00:26:28.893Z,16.74
2022-08-24T00:27:25.004Z,16.71
2022-08-24T00:28:23.693Z,16.68
2022-08-24T00:29:23.755Z,16.63
2022-08-24T00:30:23.660Z,16.59
2022-08-24T00:31:23.811Z,16.58
2022-08-24T00:32:23.674Z,16.55
2022-08-24T00:33:23.626Z,16.52
2022-08-24T00:34:23.761Z,16.49
2022-08-24T00:35:24.755Z,16.45
2022-08-24T00:36:23.615Z,16.44
2022-08-24T00:37:23.663Z,16.42
2022-08-24T00:38:24.524Z,16.44
2022-08-24T00:39:23.724Z,16.45
2022-08-24T00:40:23.649Z,16.49
2022-08-24T00:41:23.504Z,16.52
2022-08-24T00:42:23.540Z,16.53
2022-08-24T00:43:23.489Z,16.53
2022-08-24T00:44:23.536Z,16.52
2022-08-24T00:45:23.524Z,16.59
2022-08-24T00:46:23.477Z,16.59
2022-08-24T00:47:23.464Z,16.60
2022-08-24T00:48:24.034Z,16.60
2022-08-24T00:49:23.549Z,16.60
2022-08-24T00:50:23.421Z,16.58
2022-08-24T00:51:23.405Z,16.55
2022-08-24T00:52:23.457Z,16.55
2022-08-24T00:53:23.407Z,16.53
2022-08-24T00:54:23.349Z,16.52
2022-08-24T00:55:23.327Z,16.49
2022-08-24T00:56:23.360Z,16.48
2022-08-24T00:57:23.329Z,16.42
2022-08-24T00:58:23.336Z,16.41
2022-08-24T00:59:23.272Z,16.41
2022-08-24T01:00:23.274Z,16.41
2022-08-24T01:01:23.304Z,16.41
2022-08-24T01:02:24.267Z,16.41
2022-08-24T01:03:23.271Z,16.37
2022-08-24T01:04:23.247Z,16.37
2022-08-24T01:05:23.216Z,16.37
2022-08-24T01:06:23.236Z,16.35
2022-08-24T01:07:23.230Z,16.33
2022-08-24T01:08:23.195Z,16.31
2022-08-24T01:09:23.158Z,16.27
2022-08-24T01:10:23.275Z,16.25
2022-08-24T01:11:24.368Z,16.20
2022-08-24T01:12:23.127Z,16.16
2022-08-24T01:13:23.148Z,16.15
2022-08-24T01:14:23.196Z,16.14
2022-08-24T01:15:23.190Z,16.09
2022-08-24T01:16:23.109Z,16.09
2022-08-24T01:17:23.042Z,16.07
2022-08-24T01:18:23.277Z,16.09
2022-08-24T01:19:23.134Z,16.11
2022-08-24T01:20:23.060Z,16.12
2022-08-24T01:21:22.989Z,16.11
2022-08-24T01:22:22.981Z,16.11
2022-08-24T01:23:22.955Z,16.09
2022-08-24T01:24:22.948Z,16.09
2022-08-24T01:25:22.987Z,16.06
2022-08-24T01:26:22.940Z,16.07
2022-08-24T01:27:27.784Z,16.09
2022-08-24T01:28:27.263Z,16.09
2022-08-24T01:29:23.672Z,16.07
2022-08-24T01:30:25.868Z,16.07
2022-08-24T01:31:23.926Z,16.03
2022-08-24T01:32:22.880Z,16.01
2022-08-24T01:33:22.839Z,15.97
2022-08-24T01:34:22.869Z,15.94
2022-08-24T01:35:22.841Z,15.92
2022-08-24T01:36:28.609Z,15.86
2022-08-24T01:37:23.852Z,15.79
2022-08-24T01:38:23.826Z,15.78
2022-08-24T01:39:22.752Z,15.74
2022-08-24T01:40:22.804Z,15.68
2022-08-24T01:41:26.911Z,15.63
2022-08-24T01:42:23.731Z,15.60
2022-08-24T01:43:22.698Z,15.59
2022-08-24T01:44:22.706Z,15.56
2022-08-24T01:45:22.771Z,15.56
2022-08-24T01:46:22.690Z,15.54
2022-08-24T01:47:22.677Z,15.52
2022-08-24T01:48:22.979Z,15.52
2022-08-24T01:49:22.652Z,15.54
2022-08-24T01:50:22.681Z,15.61
2022-08-24T01:51:22.595Z,15.61
2022-08-24T01:52:22.675Z,15.64
2022-08-24T01:53:22.783Z,15.68
2022-08-24T01:54:22.679Z,15.72
2022-08-24T01:55:22.917Z,15.75
2022-08-24T01:56:22.608Z,15.79
2022-08-24T01:57:23.071Z,15.84
2022-08-24T01:58:22.571Z,15.84
2022-08-24T01:59:22.506Z,15.84
2022-08-24T02:00:22.511Z,15.85
2022-08-24T02:01:22.501Z,15.85
2022-08-24T02:02:22.522Z,15.86
2022-08-24T02:03:27.604Z,15.86
2022-08-24T02:04:23.514Z,15.89
2022-08-24T02:05:22.463Z,15.93
2022-08-24T02:06:22.792Z,15.94
2022-08-24T02:07:22.479Z,15.99
2022-08-24T02:08:22.431Z,15.99
2022-08-24T02:09:22.422Z,15.96
2022-08-24T02:10:22.391Z,15.94
2022-08-24T02:11:22.364Z,15.93
2022-08-24T02:12:22.344Z,15.88
2022-08-24T02:13:22.400Z,15.81
2022-08-24T02:14:22.364Z,15.76
2022-08-24T02:15:22.384Z,15.75
2022-08-24T02:16:22.299Z,15.74
2022-08-24T02:17:22.264Z,15.76
2022-08-24T02:18:23.056Z,15.75
2022-08-24T02:19:22.260Z,15.78
2022-08-24T02:20:22.293Z,15.79
2022-08-24T02:21:22.382Z,15.78
2022-08-24T02:22:22.193Z,15.75
2022-08-24T02:23:22.176Z,15.74
2022-08-24T02:24:22.204Z,15.72
2022-08-24T02:25:22.174Z,15.72
2022-08-24T02:26:22.182Z,15.70
2022-08-24T02:27:22.196Z,15.70
2022-08-24T02:28:23.129Z,15.67
2022-08-24T02:29:22.268Z,15.67
2022-08-24T02:30:22.242Z,15.64
2022-08-24T02:31:22.194Z,15.63
2022-08-24T02:32:22.367Z,15.59
2022-08-24T02:33:22.100Z,15.57
2022-08-24T02:34:22.247Z,15.51
2022-08-24T02:35:22.036Z,15.49
2022-08-24T02:36:26.426Z,15.48
2022-08-24T02:37:22.012Z,15.45
2022-08-24T02:38:22.634Z,15.43
2022-08-24T02:39:22.122Z,15.42
2022-08-24T02:40:22.018Z,15.39
2022-08-24T02:41:21.973Z,15.42
2022-08-24T02:42:21.966Z,15.42
2022-08-24T02:43:21.922Z,15.42
2022-08-24T02:44:23.118Z,15.43
2022-08-24T02:45:22.158Z,15.42
2022-08-24T02:46:21.951Z,15.43
2022-08-24T02:47:21.911Z,15.42
2022-08-24T02:48:22.879Z,15.42
2022-08-24T02:49:21.864Z,15.39
2022-08-24T02:50:21.872Z,15.38
2022-08-24T02:51:21.875Z,15.38
2022-08-24T02:52:21.902Z,15.36
2022-08-24T02:53:21.803Z,15.35
2022-08-24T02:54:22.679Z,15.31
2022-08-24T02:55:21.776Z,15.30
2022-08-24T02:56:21.756Z,15.27
2022-08-24T02:57:22.765Z,15.23
2022-08-24T02:58:21.756Z,15.20
2022-08-24T02:59:21.716Z,15.15
2022-08-24T03:00:21.758Z,15.17
2022-08-24T03:01:23.945Z,15.15
2022-08-24T03:02:22.727Z,15.17
2022-08-24T03:03:21.682Z,15.17
2022-08-24T03:04:21.717Z,15.15
2022-08-24T03:05:21.660Z,15.13
2022-08-24T03:06:21.628Z,15.12
2022-08-24T03:07:21.632Z,15.09
2022-08-24T03:08:21.611Z,15.06
2022-08-24T03:09:23.427Z,15.05
2022-08-24T03:10:21.607Z,15.03
2022-08-24T03:11:24.644Z,14.99
2022-08-24T03:12:22.748Z,14.95
2022-08-24T03:13:21.578Z,14.94
2022-08-24T03:14:21.633Z,14.91
2022-08-24T03:15:21.528Z,14.88
2022-08-24T03:16:21.559Z,14.86
2022-08-24T03:17:21.513Z,14.84
2022-08-24T03:18:24.726Z,14.84
2022-08-24T03:19:21.488Z,14.81
2022-08-24T03:20:21.473Z,14.80
2022-08-24T03:21:21.450Z,14.75
2022-08-24T03:22:21.418Z,14.72
2022-08-24T03:23:23.360Z,14.72
2022-08-24T03:24:21.455Z,14.71
2022-08-24T03:25:21.403Z,14.67
2022-08-24T03:26:21.391Z,14.65
2022-08-24T03:27:21.434Z,14.62
2022-08-24T03:28:21.359Z,14.60
2022-08-24T03:29:23.942Z,14.57
2022-08-24T03:30:21.319Z,14.54
2022-08-24T03:31:21.333Z,14.53
2022-08-24T03:32:21.360Z,14.53
2022-08-24T03:33:21.297Z,14.50
2022-08-24T03:34:21.286Z,14.47
2022-08-24T03:35:22.755Z,14.47
2022-08-24T03:36:21.261Z,14.47
2022-08-24T03:37:21.257Z,14.46
2022-08-24T03:38:22.035Z,14.47
2022-08-24T03:39:21.284Z,14.50
2022-08-24T03:40:23.051Z,14.50
2022-08-24T03:41:21.195Z,14.50
2022-08-24T03:42:21.178Z,14.50
2022-08-24T03:43:21.163Z,14.47
2022-08-24T03:44:23.206Z,14.46
2022-08-24T03:45:21.117Z,14.49
2022-08-24T03:46:21.154Z,14.49
2022-08-24T03:47:21.120Z,14.52
2022-08-24T03:48:21.166Z,14.54
2022-08-24T03:49:21.076Z,14.56
2022-08-24T03:50:21.067Z,14.57
2022-08-24T03:51:21.088Z,14.62
2022-08-24T03:52:21.219Z,14.67
2022-08-24T03:53:21.009Z,14.68
2022-08-24T03:54:21.091Z,14.69
2022-08-24T03:55:20.997Z,14.68
2022-08-24T03:56:21.047Z,14.69
2022-08-24T03:57:20.968Z,14.69
2022-08-24T03:58:21.012Z,14.68
2022-08-24T03:59:20.973Z,14.67
2022-08-24T04:00:20.917Z,14.65
2022-08-24T04:01:21.010Z,14.64
2022-08-24T04:02:20.993Z,14.64
2022-08-24T04:03:20.984Z,14.64
2022-08-24T04:04:20.882Z,14.61
2022-08-24T04:05:20.895Z,14.64
2022-08-24T04:06:20.845Z,14.64
2022-08-24T04:07:20.833Z,14.64
2022-08-24T04:08:21.711Z,14.62
2022-08-24T04:09:20.876Z,14.61
2022-08-24T04:10:20.875Z,14.64
2022-08-24T04:11:20.821Z,14.62
2022-08-24T04:12:23.103Z,14.62
2022-08-24T04:13:20.792Z,14.60
2022-08-24T04:14:26.985Z,14.60
2022-08-24T04:15:21.732Z,14.60
2022-08-24T04:16:21.989Z,14.60
2022-08-24T04:17:20.715Z,14.61
2022-08-24T04:18:20.752Z,14.60
2022-08-24T04:19:20.785Z,14.57
2022-08-24T04:20:20.676Z,14.57
2022-08-24T04:21:20.657Z,14.54
2022-08-24T04:22:20.626Z,14.53
2022-08-24T04:23:21.257Z,14.53
2022-08-24T04:24:20.624Z,14.53
2022-08-24T04:25:24.648Z,14.56
2022-08-24T04:26:44.125Z,14.54
2022-08-24T04:27:21.571Z,14.56
2022-08-24T04:28:21.838Z,14.60
2022-08-24T04:29:20.581Z,14.64
2022-08-24T04:30:20.568Z,14.65
2022-08-24T04:31:20.613Z,14.68
2022-08-24T04:32:20.547Z,14.69
2022-08-24T04:33:20.485Z,14.72
2022-08-24T04:34:20.499Z,14.71
2022-08-24T04:35:20.471Z,14.74
2022-08-24T04:36:20.471Z,14.78
2022-08-24T04:37:24.196Z,14.80
2022-08-24T04:38:22.423Z,14.81
2022-08-24T04:39:20.516Z,14.81
2022-08-24T04:40:20.551Z,14.83
2022-08-24T04:41:27.467Z,14.84
2022-08-24T04:42:21.372Z,14.84
2022-08-24T04:43:20.440Z,14.87
2022-08-24T04:44:20.414Z,14.90
2022-08-24T04:45:20.442Z,14.90
2022-08-24T04:46:20.324Z,14.91
2022-08-24T04:47:20.344Z,14.93
2022-08-24T04:48:21.456Z,14.93
2022-08-24T04:49:20.432Z,14.93
2022-08-24T04:50:20.311Z,14.98
2022-08-24T04:51:20.349Z,15.01
2022-08-24T04:52:20.334Z,15.02
2022-08-24T04:53:20.292Z,15.05
2022-08-24T04:54:20.214Z,15.08
2022-08-24T04:55:20.220Z,15.09
2022-08-24T04:56:20.417Z,15.11
2022-08-24T04:57:20.189Z,15.09
2022-08-24T04:58:20.234Z,15.12
2022-08-24T04:59:21.428Z,15.13
2022-08-24T05:00:20.168Z,15.13
2022-08-24T05:01:20.727Z,15.13
2022-08-24T05:02:20.305Z,15.15
2022-08-24T05:03:21.037Z,15.17
2022-08-24T05:04:20.940Z,15.19
2022-08-24T05:05:20.847Z,15.20
2022-08-24T05:06:20.068Z,15.21
2022-08-24T05:07:20.069Z,15.24
2022-08-24T05:08:20.479Z,15.26
2022-08-24T05:09:20.993Z,15.28
2022-08-24T05:10:20.895Z,15.28
2022-08-24T05:11:20.164Z,15.33
2022-08-24T05:12:20.048Z,15.36
2022-08-24T05:13:20.570Z,15.38
2022-08-24T05:14:20.879Z,15.39
2022-08-24T05:15:20.032Z,15.39
2022-08-24T05:16:20.153Z,15.42
2022-08-24T05:17:20.727Z,15.45
2022-08-24T05:18:20.036Z,15.46
2022-08-24T05:19:19.995Z,15.46
2022-08-24T05:20:20.220Z,15.48
2022-08-24T05:21:20.031Z,15.51
2022-08-24T05:22:19.976Z,15.56
2022-08-24T05:23:20.011Z,15.56
2022-08-24T05:24:20.113Z,15.60
2022-08-24T05:25:19.864Z,15.63
2022-08-24T05:26:19.836Z,15.66
2022-08-24T05:27:19.830Z,15.70
2022-08-24T05:28:19.774Z,15.72
2022-08-24T05:29:19.945Z,15.78
2022-08-24T05:30:19.857Z,15.79
2022-08-24T05:31:19.928Z,15.82
2022-08-24T05:32:19.909Z,15.86
2022-08-24T05:33:20.726Z,15.92
2022-08-24T05:34:19.707Z,15.97
2022-08-24T05:35:19.917Z,16.00
2022-08-24T05:36:19.675Z,16.03
2022-08-24T05:37:19.668Z,16.06
2022-08-24T05:38:20.759Z,16.09
2022-08-24T05:39:19.657Z,16.12
2022-08-24T05:40:19.870Z,16.23
2022-08-24T05:41:19.597Z,16.22
2022-08-24T05:42:20.368Z,16.26
2022-08-24T05:43:19.811Z,16.31
2022-08-24T05:44:19.572Z,16.34
2022-08-24T05:45:19.577Z,16.41
2022-08-24T05:46:19.676Z,16.42
2022-08-24T05:47:19.620Z,16.49
2022-08-24T05:48:19.576Z,16.53
2022-08-24T05:49:19.631Z,16.59
2022-08-24T05:50:19.628Z,16.67
2022-08-24T05:51:19.550Z,16.70
2022-08-24T05:52:19.800Z,16.75
2022-08-24T05:53:19.483Z,16.81
2022-08-24T05:54:19.441Z,16.86
2022-08-24T05:55:19.480Z,16.92
2022-08-24T05:56:20.050Z,16.98
2022-08-24T05:57:19.394Z,17.04
2022-08-24T05:58:30.536Z,17.13
2022-08-24T05:59:20.546Z,17.18
2022-08-24T06:00:19.841Z,17.26
2022-08-24T06:01:19.415Z,17.30
2022-08-24T06:02:19.489Z,17.38
2022-08-24T06:03:19.417Z,17.43
2022-08-24T06:04:20.305Z,17.48
2022-08-24T06:05:20.210Z,17.53
2022-08-24T06:06:19.344Z,17.59
2022-08-24T06:07:19.257Z,17.67
2022-08-24T06:08:19.332Z,17.73
2022-08-24T06:09:19.533Z,17.78
2022-08-24T06:10:36.393Z,17.82
2022-08-24T06:11:20.297Z,17.88
2022-08-24T06:12:19.260Z,17.95
2022-08-24T06:13:19.289Z,18.02
2022-08-24T06:14:21.002Z,18.07
2022-08-24T06:15:19.168Z,18.12
2022-08-24T06:16:21.645Z,18.19
2022-08-24T06:17:19.432Z,18.25
2022-08-24T06:18:19.203Z,18.34
2022-08-24T06:19:19.139Z,18.40
2022-08-24T06:20:19.226Z,18.44
2022-08-24T06:21:19.150Z,18.49
2022-08-24T06:22:19.170Z,18.58
2022-08-24T06:23:19.144Z,18.65
2022-08-24T06:24:19.092Z,18.73
2022-08-24T06:25:19.054Z,18.80
2022-08-24T06:26:22.978Z,18.87
2022-08-24T06:27:19.089Z,18.95
2022-08-24T06:28:19.024Z,19.01
2022-08-24T06:29:19.047Z,19.06
2022-08-24T06:30:19.299Z,19.13
2022-08-24T06:31:19.221Z,19.20
2022-08-24T06:32:19.164Z,19.29
2022-08-24T06:33:19.002Z,19.36
2022-08-24T06:34:19.340Z,19.46
2022-08-24T06:35:19.069Z,19.51
2022-08-24T06:36:22.633Z,19.54
2022-08-24T06:37:18.924Z,19.60
2022-08-24T06:38:19.912Z,19.68
2022-08-24T06:39:19.176Z,19.75
2022-08-24T06:40:18.895Z,19.79
2022-08-24T06:41:18.817Z,19.84
2022-08-24T06:42:18.927Z,19.90
2022-08-24T06:43:18.808Z,19.97
2022-08-24T06:44:18.919Z,19.98
2022-08-24T06:45:18.807Z,20.05
2022-08-24T06:46:23.445Z,20.08
2022-08-24T06:47:19.941Z,20.10
2022-08-24T06:48:19.666Z,20.15
2022-08-24T06:49:18.868Z,20.23
2022-08-24T06:50:18.724Z,20.31
2022-08-24T06:51:18.700Z,20.41
2022-08-24T06:52:18.778Z,20.51
2022-08-24T06:53:18.674Z,20.56
2022-08-24T06:54:18.712Z,20.62
2022-08-24T06:55:19.510Z,20.69
2022-08-24T06:56:18.643Z,20.71
2022-08-24T06:57:18.633Z,20.79
2022-08-24T06:58:19.729Z,20.84
2022-08-24T06:59:18.824Z,20.89
2022-08-24T07:00:18.825Z,20.95
2022-08-24T07:01:18.660Z,20.99
2022-08-24T07:02:18.591Z,21.06
2022-08-24T07:03:19.822Z,21.16
2022-08-24T07:04:19.049Z,21.20
2022-08-24T07:05:18.581Z,21.26
2022-08-24T07:06:18.553Z,21.34
2022-08-24T07:07:19.009Z,21.42
2022-08-24T07:08:19.490Z,21.53
2022-08-24T07:09:18.765Z,21.60
2022-08-24T07:10:22.108Z,21.66
2022-08-24T07:11:19.467Z,21.72
2022-08-24T07:12:19.400Z,21.79
2022-08-24T07:13:18.674Z,21.92
2022-08-24T07:14:18.576Z,21.98
2022-08-24T07:15:19.929Z,22.01
2022-08-24T07:16:18.609Z,22.01
2022-08-24T07:17:18.497Z,22.09
2022-08-24T07:18:18.389Z,22.10
2022-08-24T07:19:19.247Z,22.10
2022-08-24T07:20:18.560Z,22.14
2022-08-24T07:21:18.475Z,22.17
2022-08-24T07:22:18.605Z,22.28
2022-08-24T07:23:18.369Z,22.29
2022-08-24T07:24:19.278Z,22.32
2022-08-24T07:25:19.191Z,22.39
2022-08-24T07:26:21.555Z,22.43
2022-08-24T07:27:18.346Z,22.44
2022-08-24T07:28:18.228Z,22.50
2022-08-24T07:29:44.066Z,22.56
2022-08-24T07:30:27.838Z,22.57
2022-08-24T07:31:19.242Z,22.64
2022-08-24T07:32:18.181Z,22.68
2022-08-24T07:33:18.189Z,22.72
2022-08-24T07:34:18.162Z,22.78
2022-08-24T07:35:18.158Z,22.83
2022-08-24T07:36:22.754Z,22.84
2022-08-24T07:37:18.164Z,22.80
2022-08-24T07:38:18.123Z,22.82
2022-08-24T07:39:18.143Z,22.86
2022-08-24T07:40:18.802Z,22.92
2022-08-24T07:41:40.524Z,22.99
2022-08-24T07:42:25.584Z,23.04
2022-08-24T07:43:19.051Z,23.17
2022-08-24T07:44:18.897Z,23.26
2022-08-24T07:45:18.056Z,23.34
2022-08-24T07:46:18.028Z,23.35
2022-08-24T07:47:37.420Z,23.46
2022-08-24T07:48:20.061Z,23.52
2022-08-24T07:49:36.137Z,23.53
2022-08-24T07:50:18.979Z,23.53
2022-08-24T07:51:18.076Z,23.53
2022-08-24T07:52:17.950Z,23.53
2022-08-24T07:53:20.836Z,23.58
2022-08-24T07:54:19.990Z,23.60
2022-08-24T07:55:17.929Z,23.65
2022-08-24T07:56:17.878Z,23.71
2022-08-24T07:57:17.928Z,23.76
2022-08-24T07:58:18.861Z,23.86
2022-08-24T07:59:18.088Z,23.92
2022-08-24T08:00:18.909Z,24.04
2022-08-24T08:01:17.851Z,24.10
2022-08-24T08:02:17.956Z,24.13
2022-08-24T08:03:17.940Z,24.14
2022-08-24T08:04:19.020Z,24.16
2022-08-24T08:05:18.953Z,24.19
2022-08-24T08:06:18.831Z,24.17
2022-08-24T08:07:17.949Z,24.17
2022-08-24T08:08:18.014Z,24.14
2022-08-24T08:09:17.675Z,24.17
2022-08-24T08:10:17.732Z,24.23
2022-08-24T08:11:17.740Z,24.32
2022-08-24T08:12:18.625Z,24.39
2022-08-24T08:13:17.816Z,24.44
2022-08-24T08:14:17.659Z,24.54
2022-08-24T08:15:17.732Z,24.56
2022-08-24T08:16:17.800Z,24.56
2022-08-24T08:17:17.648Z,24.56
2022-08-24T08:18:18.458Z,24.52
2022-08-24T08:19:17.588Z,24.57
2022-08-24T08:20:19.394Z,24.71
2022-08-24T08:21:17.587Z,24.87
2022-08-24T08:22:17.610Z,25.05
2022-08-24T08:23:17.516Z,25.17
2022-08-24T08:24:17.501Z,25.30
2022-08-24T08:25:17.473Z,25.37
2022-08-24T08:26:17.780Z,25.37
2022-08-24T08:27:17.492Z,25.31
2022-08-24T08:28:25.030Z,25.32
2022-08-24T08:29:20.408Z,25.39
2022-08-24T08:30:17.419Z,25.37
2022-08-24T08:31:17.549Z,25.35
2022-08-24T08:32:17.481Z,25.34
2022-08-24T08:33:17.473Z,25.42
2022-08-24T08:34:18.199Z,25.42
2022-08-24T08:35:17.343Z,25.44
2022-08-24T08:36:17.824Z,25.50
2022-08-24T08:37:18.844Z,25.57
2022-08-24T08:38:18.325Z,25.65
2022-08-24T08:39:18.223Z,25.67
2022-08-24T08:40:17.835Z,25.62
2022-08-24T08:41:22.061Z,25.64
2022-08-24T08:42:18.236Z,25.67
2022-08-24T08:43:17.564Z,25.77
2022-08-24T08:44:17.278Z,25.83
2022-08-24T08:45:17.205Z,25.84
2022-08-24T08:46:17.287Z,25.93
2022-08-24T08:47:19.177Z,25.99
2022-08-24T08:48:17.261Z,26.02
2022-08-24T08:49:18.624Z,26.05
2022-08-24T08:50:17.961Z,26.15
2022-08-24T08:51:17.197Z,26.17
2022-08-24T08:52:17.210Z,26.20
2022-08-24T08:53:17.769Z,26.11
2022-08-24T08:54:18.723Z,26.15
2022-08-24T08:55:17.088Z,26.18
2022-08-24T08:56:17.133Z,26.20
2022-08-24T08:57:17.403Z,26.21
2022-08-24T08:58:17.081Z,26.35
2022-08-24T08:59:17.058Z,26.49
2022-08-24T09:00:17.120Z,26.64
2022-08-24T09:01:18.241Z,26.64
2022-08-24T09:02:17.125Z,26.61
2022-08-24T09:03:17.969Z,26.57
2022-08-24T09:04:20.931Z,26.57
2022-08-24T09:05:17.237Z,26.65
2022-08-24T09:06:16.949Z,26.76
2022-08-24T09:07:16.950Z,26.80
2022-08-24T09:08:17.116Z,26.87
2022-08-24T09:09:17.468Z,26.89
2022-08-24T09:10:17.138Z,26.83
2022-08-24T09:11:16.907Z,26.84
2022-08-24T09:12:16.897Z,26.84
2022-08-24T09:13:18.032Z,26.84
2022-08-24T09:14:17.778Z,26.86
2022-08-24T09:15:17.044Z,26.86
2022-08-24T09:16:17.043Z,26.86
2022-08-24T09:17:17.128Z,26.84
2022-08-24T09:18:18.060Z,26.84
2022-08-24T09:19:18.230Z,26.87
2022-08-24T09:20:16.841Z,26.91
2022-08-24T09:21:17.527Z,26.94
2022-08-24T09:22:16.840Z,26.92
2022-08-24T09:23:16.749Z,26.95
2022-08-24T09:24:16.920Z,26.96
2022-08-24T09:25:16.754Z,26.99
2022-08-24T09:26:19.122Z,27.01
2022-08-24T09:27:16.820Z,26.99
2022-08-24T09:28:17.624Z,27.02
2022-08-24T09:29:16.825Z,26.99
2022-08-24T09:30:16.776Z,27.01
2022-08-24T09:31:16.741Z,27.02
2022-08-24T09:32:18.253Z,27.09
2022-08-24T09:33:17.648Z,27.11
2022-08-24T09:34:17.168Z,27.10
2022-08-24T09:35:27.064Z,27.01
2022-08-24T09:36:17.564Z,26.95
2022-08-24T09:37:18.164Z,26.95
2022-08-24T09:38:16.826Z,26.98
2022-08-24T09:39:18.003Z,27.04
2022-08-24T09:40:16.955Z,27.09
2022-08-24T09:41:17.390Z,27.06
2022-08-24T09:42:16.582Z,27.19
2022-08-24T09:43:17.741Z,27.29
2022-08-24T09:44:16.482Z,27.32
2022-08-24T09:45:16.465Z,27.35
2022-08-24T09:46:16.549Z,27.39
2022-08-24T09:47:16.423Z,27.43
2022-08-24T09:48:16.429Z,27.50
2022-08-24T09:49:16.421Z,27.53
2022-08-24T09:50:16.634Z,27.43
2022-08-24T09:51:16.564Z,27.35
2022-08-24T09:52:16.590Z,27.24
2022-08-24T09:53:16.363Z,27.21
2022-08-24T09:54:16.945Z,27.29
2022-08-24T09:55:16.340Z,27.41
2022-08-24T09:56:16.347Z,27.53
2022-08-24T09:57:19.798Z,27.58
2022-08-24T09:58:16.456Z,27.58
2022-08-24T09:59:16.355Z,27.71
2022-08-24T10:00:17.104Z,27.86
2022-08-24T10:01:16.582Z,27.94
2022-08-24T10:02:17.042Z,27.89
2022-08-24T10:03:16.339Z,27.80
2022-08-24T10:04:17.343Z,27.76
2022-08-24T10:05:16.276Z,27.77
2022-08-24T10:06:16.284Z,27.77
2022-08-24T10:07:16.879Z,27.79
2022-08-24T10:08:16.175Z,27.85
2022-08-24T10:09:20.550Z,28.07
2022-08-24T10:10:17.221Z,28.16
2022-08-24T10:11:17.079Z,28.19
2022-08-24T10:12:16.981Z,28.09
2022-08-24T10:13:16.094Z,27.95
2022-08-24T10:14:16.201Z,27.89
2022-08-24T10:15:16.192Z,27.96
2022-08-24T10:16:16.231Z,27.95
2022-08-24T10:17:16.049Z,27.89
2022-08-24T10:18:16.152Z,27.94
2022-08-24T10:19:16.032Z,28.07
2022-08-24T10:20:16.850Z,28.16
2022-08-24T10:21:16.193Z,28.14
2022-08-24T10:22:17.045Z,28.10
2022-08-24T10:23:16.184Z,28.01
2022-08-24T10:24:16.037Z,27.92
2022-08-24T10:25:15.943Z,27.88
2022-08-24T10:26:15.963Z,27.84
2022-08-24T10:27:17.078Z,27.80
2022-08-24T10:28:15.900Z,27.82
2022-08-24T10:29:15.992Z,27.89
2022-08-24T10:30:16.010Z,27.96
2022-08-24T10:31:16.934Z,27.96
2022-08-24T10:32:15.888Z,28.03
2022-08-24T10:33:15.927Z,28.14
2022-08-24T10:34:15.847Z,28.26
2022-08-24T10:35:16.588Z,28.32
2022-08-24T10:36:16.747Z,28.32
2022-08-24T10:37:15.894Z,28.31
2022-08-24T10:38:15.872Z,28.25
2022-08-24T10:39:15.980Z,28.13
2022-08-24T10:40:16.905Z,28.09
2022-08-24T10:41:15.769Z,28.09
2022-08-24T10:42:15.744Z,28.03
2022-08-24T10:43:17.151Z,28.06
2022-08-24T10:44:15.851Z,28.14
2022-08-24T10:45:15.686Z,28.17
2022-08-24T10:46:16.775Z,28.21
2022-08-24T10:47:15.864Z,28.32
2022-08-24T10:48:15.979Z,28.41
2022-08-24T10:49:15.910Z,28.53
2022-08-24T10:50:15.614Z,28.40
2022-08-24T10:51:16.082Z,28.25
2022-08-24T10:52:15.619Z,28.22
2022-08-24T10:53:16.626Z,28.16
2022-08-24T10:54:15.638Z,28.10
2022-08-24T10:55:15.573Z,28.09
2022-08-24T10:56:16.342Z,28.19
2022-08-24T10:57:17.106Z,28.21
2022-08-24T10:58:16.660Z,28.26
2022-08-24T10:59:16.105Z,28.35
2022-08-24T11:00:23.087Z,28.40
2022-08-24T11:01:16.553Z,28.41
2022-08-24T11:02:15.535Z,28.43
2022-08-24T11:03:15.461Z,28.35
2022-08-24T11:04:15.647Z,28.44
2022-08-24T11:05:16.651Z,28.51
2022-08-24T11:06:15.472Z,28.54
2022-08-24T11:07:15.459Z,28.53
2022-08-24T11:08:16.211Z,28.48
2022-08-24T11:09:19.477Z,28.35
2022-08-24T11:10:15.437Z,28.25
2022-08-24T11:11:16.436Z,28.25
2022-08-24T11:12:16.331Z,28.28
2022-08-24T11:13:15.348Z,28.33
2022-08-24T11:14:15.326Z,28.46
2022-08-24T11:15:15.497Z,28.56
2022-08-24T11:16:15.530Z,28.68
2022-08-24T11:17:17.055Z,28.75
2022-08-24T11:18:15.499Z,28.75
2022-08-24T11:19:15.337Z,28.70
2022-08-24T11:20:15.247Z,28.70
2022-08-24T11:21:15.254Z,28.70
2022-08-24T11:22:15.239Z,28.85
2022-08-24T11:23:15.249Z,28.93
2022-08-24T11:24:15.243Z,28.97
2022-08-24T11:25:15.161Z,29.06
2022-08-24T11:26:15.192Z,29.16
2022-08-24T11:27:15.157Z,29.19
2022-08-24T11:28:16.340Z,29.19
2022-08-24T11:29:15.122Z,29.31
2022-08-24T11:30:15.151Z,29.29
2022-08-24T11:31:15.166Z,29.26
2022-08-24T11:32:15.172Z,29.22
2022-08-24T11:33:15.114Z,29.19
2022-08-24T11:34:15.098Z,29.18
2022-08-24T11:35:15.075Z,29.16
2022-08-24T11:36:15.037Z,29.11
2022-08-24T11:37:19.127Z,29.10
2022-08-24T11:38:15.892Z,29.00
2022-08-24T11:39:15.007Z,29.00
2022-08-24T11:40:15.094Z,28.95
2022-08-24T11:41:16.112Z,28.90
2022-08-24T11:42:16.020Z,28.91
2022-08-24T11:43:14.976Z,29.00
2022-08-24T11:44:14.986Z,29.04
2022-08-24T11:45:14.939Z,29.01
2022-08-24T11:46:14.955Z,29.03
2022-08-24T11:47:14.889Z,29.06
2022-08-24T11:48:15.918Z,29.11
2022-08-24T11:49:14.921Z,29.25
2022-08-24T11:50:15.199Z,29.40
2022-08-24T11:51:15.190Z,29.44
2022-08-24T11:52:16.272Z,29.45
2022-08-24T11:53:14.840Z,29.43
2022-08-24T11:54:14.819Z,29.33
2022-08-24T11:55:14.785Z,29.29
2022-08-24T11:56:17.397Z,29.29
2022-08-24T11:57:15.184Z,29.26
2022-08-24T11:58:16.016Z,29.19
2022-08-24T11:59:14.797Z,29.18
2022-08-24T12:00:14.726Z,29.18
2022-08-24T12:01:14.832Z,29.22
2022-08-24T12:02:15.125Z,29.23
2022-08-24T12:03:15.315Z,29.28
2022-08-24T12:04:14.687Z,29.28
2022-08-24T12:05:16.386Z,29.20
2022-08-24T12:06:14.946Z,29.16
2022-08-24T12:07:14.640Z,29.07
2022-08-24T12:08:14.615Z,29.00
2022-08-24T12:09:14.608Z,29.01
2022-08-24T12:10:14.622Z,29.01
2022-08-24T12:11:14.748Z,28.95
2022-08-24T12:12:14.619Z,28.88
2022-08-24T12:13:14.561Z,28.87
2022-08-24T12:14:14.562Z,28.84
2022-08-24T12:15:15.036Z,28.93
2022-08-24T12:16:14.647Z,29.00
2022-08-24T12:17:14.589Z,29.07
2022-08-24T12:18:15.631Z,29.20
2022-08-24T12:19:14.536Z,29.26
2022-08-24T12:20:14.483Z,29.29
2022-08-24T12:21:14.489Z,29.26
2022-08-24T12:22:14.459Z,29.22
2022-08-24T12:23:14.440Z,29.18
2022-08-24T12:24:14.552Z,29.07
2022-08-24T12:25:14.641Z,29.07
2022-08-24T12:26:14.984Z,29.06
2022-08-24T12:27:14.406Z,29.06
2022-08-24T12:28:15.187Z,29.06
2022-08-24T12:29:14.355Z,29.08
2022-08-24T12:30:14.372Z,29.11
2022-08-24T12:31:14.748Z,29.19
2022-08-24T12:32:14.336Z,29.26
2022-08-24T12:33:14.307Z,29.35
2022-08-24T12:34:14.283Z,29.44
2022-08-24T12:35:14.277Z,29.53
2022-08-24T12:36:14.359Z,29.55
2022-08-24T12:37:16.239Z,29.70
2022-08-24T12:38:15.251Z,29.77
2022-08-24T12:39:14.227Z,29.74
2022-08-24T12:40:15.161Z,29.72
2022-08-24T12:41:19.052Z,29.66
2022-08-24T12:42:17.114Z,29.70
2022-08-24T12:43:14.673Z,29.72
2022-08-24T12:44:14.160Z,29.84
2022-08-24T12:45:14.180Z,29.87
2022-08-24T12:46:14.225Z,29.87
2022-08-24T12:47:14.162Z,29.81
2022-08-24T12:48:14.758Z,29.70
2022-08-24T12:49:14.105Z,29.63
2022-08-24T12:50:14.564Z,29.59
2022-08-24T12:51:14.135Z,29.53
2022-08-24T12:52:15.035Z,29.49